Time;durP1;ratioP1;P1;durP2;ratioP2;P2;SDS_P1;SDS_P2;PMS_P1;PMS_P2;Temp;Humidity;BMP_temperature;BMP_pressure;BME280_temperature;BME280_humidity;BME280_pressure;Samples;Min_cycle;Max_cycle;Signal;HPM_P1;HPM_P2
2022/11/01 00:02:24;;;;;;;;;;;13.30;99.90;;;;;;6281345;22;19915;-67
2022/11/01 00:04:54;;;;;;;;;;;13.30;99.90;;;;;;6308569;22;20336;-67
2022/11/01 00:07:23;;;;;;;;;;;13.30;99.90;;;;;;6308439;22;20384;-67
2022/11/01 00:09:52;;;;;;;;;;;13.40;99.90;;;;;;6307216;22;19915;-67
2022/11/01 00:12:18;;;;;;;;;;;13.30;99.90;;;;;;6281835;22;20340;-67
2022/11/01 00:14:44;;;;;;;;;;;13.30;99.90;;;;;;6281190;22;19915;-66
2022/11/01 00:17:11;;;;;;;;;;;13.30;99.90;;;;;;6308868;22;19976;-66
2022/11/01 00:19:38;;;;;;;;;;;13.30;99.90;;;;;;6308399;22;19926;-66
2022/11/01 00:22:05;;;;;;;;;;;13.30;99.90;;;;;;6308456;22;19919;-66
2022/11/01 00:24:31;;;;;;;;;;;13.30;99.90;;;;;;6308512;22;19994;-66
2022/11/01 00:26:57;;;;;;;;;;;13.40;99.90;;;;;;6308276;22;20351;-66
2022/11/01 00:29:24;;;;;;;;;;;13.30;99.90;;;;;;6308769;22;19966;-66
2022/11/01 00:31:52;;;;;;;;;;;13.30;99.90;;;;;;6308405;22;20332;-66
2022/11/01 00:34:21;;;;;;;;;;;13.40;99.90;;;;;;6308411;22;20347;-66
2022/11/01 00:36:49;;;;;;;;;;;13.40;99.90;;;;;;6308636;22;19922;-66
2022/11/01 00:39:14;;;;;;;;;;;13.40;99.90;;;;;;6308690;22;19914;-66
2022/11/01 00:41:43;;;;;;;;;;;13.40;99.90;;;;;;6308695;22;19915;-67
2022/11/01 00:44:09;;;;;;;;;;;13.50;99.90;;;;;;6308310;22;19921;-67
2022/11/01 00:46:35;;;;;;;;;;;13.40;99.90;;;;;;6308523;22;19925;-67
2022/11/01 00:49:01;;;;;;;;;;;13.50;99.90;;;;;;6308386;22;19926;-67
2022/11/01 00:51:26;;;;;;;;;;;13.60;99.90;;;;;;6308173;22;19915;-67
2022/11/01 00:53:52;;;;;;;;;;;13.50;99.90;;;;;;6308284;22;19915;-66
2022/11/01 00:56:17;;;;;;;;;;;13.60;99.90;;;;;;6308123;22;19985;-66
2022/11/01 00:58:43;;;;;;;;;;;13.60;99.90;;;;;;6308160;22;19915;-66
2022/11/01 01:01:09;;;;;;;;;;;13.60;99.90;;;;;;6280864;22;19915;-67
2022/11/01 01:03:34;;;;;;;;;;;13.60;99.90;;;;;;6308557;22;19961;-67
2022/11/01 01:06:00;;;;;;;;;;;13.60;99.90;;;;;;6306589;22;19938;-64
2022/11/01 01:08:26;;;;;;;;;;;13.70;99.90;;;;;;6308268;22;19919;-64
2022/11/01 01:10:51;;;;;;;;;;;13.70;99.90;;;;;;6308253;22;19976;-64
2022/11/01 01:13:17;;;;;;;;;;;13.80;99.90;;;;;;6308226;22;19919;-64
2022/11/01 01:15:43;;;;;;;;;;;13.80;99.90;;;;;;6308247;22;19915;-64
2022/11/01 01:18:09;;;;;;;;;;;13.80;99.90;;;;;;6308020;22;19941;-65
2022/11/01 01:20:34;;;;;;;;;;;13.90;99.90;;;;;;6308250;22;19957;-65
2022/11/01 01:23:03;;;;;;;;;;;13.90;99.90;;;;;;6306565;22;20282;-65
2022/11/01 01:25:29;;;;;;;;;;;13.90;99.90;;;;;;6308010;22;19914;-65
2022/11/01 01:27:55;;;;;;;;;;;14.00;99.90;;;;;;6307829;22;19962;-65
2022/11/01 01:30:21;;;;;;;;;;;14.00;99.90;;;;;;6306364;22;20259;-65
2022/11/01 01:32:46;;;;;;;;;;;14.00;99.90;;;;;;6307974;22;19921;-65
2022/11/01 01:35:12;;;;;;;;;;;14.00;99.90;;;;;;6307886;22;20339;-65
2022/11/01 01:37:38;;;;;;;;;;;14.00;99.90;;;;;;6308842;22;20013;-65
2022/11/01 01:40:04;;;;;;;;;;;14.00;99.90;;;;;;6282741;22;20300;-66
2022/11/01 01:42:34;;;;;;;;;;;13.90;99.90;;;;;;6308812;22;19990;-66
2022/11/01 01:45:03;;;;;;;;;;;14.00;99.90;;;;;;6310409;22;19987;-66
2022/11/01 01:47:30;;;;;;;;;;;14.00;99.90;;;;;;6309848;22;19919;-66
2022/11/01 01:49:59;;;;;;;;;;;14.00;99.90;;;;;;6309847;22;19915;-67
2022/11/01 01:52:32;;;;;;;;;;;14.00;99.90;;;;;;6310350;22;19922;-66
2022/11/01 01:54:59;;;;;;;;;;;14.00;99.90;;;;;;6310404;22;19922;-66
2022/11/01 01:57:31;;;;;;;;;;;14.00;99.90;;;;;;6309923;22;19922;-67
2022/11/01 01:59:56;;;;;;;;;;;14.00;99.90;;;;;;6282543;22;20347;-66
2022/11/01 02:02:22;;;;;;;;;;;14.00;99.90;;;;;;6310280;22;19915;-66
2022/11/01 02:04:56;;;;;;;;;;;12.40;99.90;;;;;;6310142;22;19919;-66
2022/11/01 02:07:22;;;;;;;;;;;14.00;99.90;;;;;;6309751;22;20351;-66
2022/11/01 02:09:48;;;;;;;;;;;14.00;99.90;;;;;;6310237;22;20260;-66
2022/11/01 02:12:15;;;;;;;;;;;14.00;99.90;;;;;;6310225;22;20219;-66
2022/11/01 02:14:52;;;;;;;;;;;14.00;99.90;;;;;;6310177;22;19926;-66
2022/11/01 02:17:17;;;;;;;;;;;14.00;99.90;;;;;;6310033;22;19915;-66
2022/11/01 02:19:43;;;;;;;;;;;14.00;99.90;;;;;;6306439;22;19919;-66
2022/11/01 02:22:18;;;;;;;;;;;14.00;99.90;;;;;;6309982;22;19919;-66
2022/11/01 02:24:58;;;;;;;;;;;14.00;99.90;;;;;;6309043;22;20006;-66
2022/11/01 02:27:32;;;;;;;;;;;14.00;99.90;;;;;;6307782;22;20002;-66
2022/11/01 02:30:10;;;;;;;;;;;14.00;99.90;;;;;;6309537;22;20360;-66
2022/11/01 02:32:47;;;;;;;;;;;14.00;99.90;;;;;;6309608;22;19915;-66
2022/11/01 02:35:25;;;;;;;;;;;14.00;99.90;;;;;;6309599;22;20335;-66
2022/11/01 02:38:00;;;;;;;;;;;14.10;99.90;;;;;;6309472;22;19919;-66
2022/11/01 02:40:37;;;;;;;;;;;14.00;99.90;;;;;;6309842;22;19922;-66
2022/11/01 02:43:11;;;;;;;;;;;14.00;99.90;;;;;;6308283;22;20383;-66
2022/11/01 02:45:39;;;;;;;;;;;14.10;99.90;;;;;;6282154;22;19950;-66
2022/11/01 02:48:05;;;;;;;;;;;14.10;99.90;;;;;;6309190;22;19926;-66
2022/11/01 02:50:37;;;;;;;;;;;14.10;99.90;;;;;;6309163;22;20306;-66
2022/11/01 02:53:03;;;;;;;;;;;14.10;99.90;;;;;;6309754;22;19968;-67
2022/11/01 02:55:32;;;;;;;;;;;14.00;99.90;;;;;;6309702;22;20244;-66
2022/11/01 02:58:03;;;;;;;;;;;14.00;99.90;;;;;;6281878;22;19983;-66
2022/11/01 03:00:34;;;;;;;;;;;14.10;99.90;;;;;;6309740;22;19915;-67
2022/11/01 03:03:03;;;;;;;;;;;14.10;99.90;;;;;;6309682;22;19914;-66
2022/11/01 03:05:37;;;;;;;;;;;14.10;99.90;;;;;;6309706;22;20243;-67
2022/11/01 03:08:05;;;;;;;;;;;14.10;99.90;;;;;;6309679;22;20244;-66
2022/11/01 03:10:46;;;;;;;;;;;14.10;99.90;;;;;;6307273;22;19926;-66
2022/11/01 03:13:14;;;;;;;;;;;14.20;99.90;;;;;;6309663;22;19919;-66
2022/11/01 03:15:46;;;;;;;;;;;14.20;99.90;;;;;;6309525;22;19994;-66
2022/11/01 03:18:25;;;;;;;;;;;14.20;99.90;;;;;;6307235;22;20366;-66
2022/11/01 03:20:58;;;;;;;;;;;14.20;99.90;;;;;;6309638;22;20216;-66
2022/11/01 03:23:36;;;;;;;;;;;14.30;99.90;;;;;;6309506;22;20240;-66
2022/11/01 03:26:07;;;;;;;;;;;14.30;99.90;;;;;;6309555;22;19915;-66
2022/11/01 03:28:37;;;;;;;;;;;14.30;99.90;;;;;;6308792;22;19925;-66
2022/11/01 03:31:08;;;;;;;;;;;14.40;99.90;;;;;;6309013;22;19915;-66
2022/11/01 03:33:37;;;;;;;;;;;14.30;99.90;;;;;;6307145;22;19993;-66
2022/11/01 03:36:05;;;;;;;;;;;14.50;99.90;;;;;;6308870;22;19922;-66
2022/11/01 03:38:42;;;;;;;;;;;11.70;99.90;;;;;;6309423;22;19921;-66
2022/11/01 03:41:10;;;;;;;;;;;14.60;99.90;;;;;;6308914;22;19938;-66
2022/11/01 03:43:36;;;;;;;;;;;14.60;99.90;;;;;;6309400;22;20345;-66
2022/11/01 03:46:02;;;;;;;;;;;14.60;99.90;;;;;;6281952;22;19990;-66
2022/11/01 03:48:29;;;;;;;;;;;14.50;99.90;;;;;;6308715;22;19961;-66
2022/11/01 03:50:55;;;;;;;;;;;14.50;99.90;;;;;;6308167;22;19968;-66
2022/11/01 03:53:21;;;;;;;;;;;14.50;99.90;;;;;;6309164;22;19927;-66
2022/11/01 03:55:47;;;;;;;;;;;14.50;99.90;;;;;;6281546;22;20002;-66
2022/11/01 03:58:14;;;;;;;;;;;14.50;99.90;;;;;;6308636;22;19915;-66
2022/11/01 04:00:41;;;;;;;;;;;14.50;99.90;;;;;;6308904;22;19915;-66
2022/11/01 04:03:07;;;;;;;;;;;14.50;99.90;;;;;;6308905;22;19914;-66
2022/11/01 04:05:34;;;;;;;;;;;14.50;99.90;;;;;;6308300;22;19922;-66
2022/11/01 04:08:04;;;;;;;;;;;14.50;99.90;;;;;;6308755;22;20001;-66
2022/11/01 04:10:29;;;;;;;;;;;14.50;99.90;;;;;;6308443;22;19999;-66
2022/11/01 04:13:04;;;;;;;;;;;14.50;99.90;;;;;;6308737;22;19960;-66
2022/11/01 04:21:11;;;;;;;;;;;14.60;99.90;;;;;;6308567;22;19915;-66
2022/11/01 04:23:37;;;;;;;;;;;14.70;99.90;;;;;;6308940;22;19915;-66
2022/11/01 04:26:03;;;;;;;;;;;14.70;99.90;;;;;;6308906;22;19954;-66
2022/11/01 04:28:29;;;;;;;;;;;14.80;99.90;;;;;;6308339;22;19918;-66
2022/11/01 04:30:55;;;;;;;;;;;14.90;99.90;;;;;;6308521;22;19921;-66
2022/11/01 04:33:22;;;;;;;;;;;15.00;99.90;;;;;;6308850;22;19922;-66
2022/11/01 04:35:48;;;;;;;;;;;15.10;99.90;;;;;;6308339;22;20333;-66
2022/11/01 04:38:17;;;;;;;;;;;15.10;99.90;;;;;;6308634;22;20239;-67
2022/11/01 04:40:42;;;;;;;;;;;15.20;99.90;;;;;;6308729;22;19922;-66
2022/11/01 04:43:08;;;;;;;;;;;15.30;99.90;;;;;;6308669;22;19914;-64
2022/11/01 04:45:34;;;;;;;;;;;15.30;99.90;;;;;;6308454;22;19995;-64
2022/11/01 04:48:12;;;;;;;;;;;15.40;99.90;;;;;;6308171;22;20217;-64
2022/11/01 04:50:38;;;;;;;;;;;15.40;99.90;;;;;;6308413;22;19915;-63
2022/11/01 04:53:04;;;;;;;;;;;15.50;99.90;;;;;;6307948;22;20223;-63
2022/11/01 04:55:29;;;;;;;;;;;15.50;99.90;;;;;;6304094;22;19915;-64
2022/11/01 04:57:55;;;;;;;;;;;15.50;99.90;;;;;;6306015;22;19915;-64
2022/11/01 05:00:23;;;;;;;;;;;15.50;99.90;;;;;;6305977;22;19919;-63
2022/11/01 05:02:50;;;;;;;;;;;15.50;99.90;;;;;;6306273;22;19915;-63
2022/11/01 05:05:17;;;;;;;;;;;15.40;99.90;;;;;;6306213;22;19922;-64
2022/11/01 05:07:44;;;;;;;;;;;15.40;99.90;;;;;;6306079;22;19919;-63
2022/11/01 05:10:10;;;;;;;;;;;15.50;99.90;;;;;;6308344;22;19922;-63
2022/11/01 05:12:36;;;;;;;;;;;15.50;99.90;;;;;;6308186;22;19915;-63
2022/11/01 05:15:02;;;;;;;;;;;15.50;99.90;;;;;;6307711;22;19919;-63
2022/11/01 05:17:27;;;;;;;;;;;15.60;99.90;;;;;;6280863;22;19915;-64
2022/11/01 05:19:55;;;;;;;;;;;15.60;99.90;;;;;;6307879;22;19985;-63
2022/11/01 05:22:20;;;;;;;;;;;15.60;99.90;;;;;;6308371;22;19972;-64
2022/11/01 05:24:46;;;;;;;;;;;15.60;99.90;;;;;;6280672;22;20290;-63
2022/11/01 05:27:12;;;;;;;;;;;15.60;99.90;;;;;;6308455;22;19941;-64
2022/11/01 05:29:37;;;;;;;;;;;15.60;99.90;;;;;;6308320;22;19915;-63
2022/11/01 05:32:04;;;;;;;;;;;15.70;99.90;;;;;;6308453;22;19953;-64
2022/11/01 05:34:30;;;;;;;;;;;15.70;99.90;;;;;;6280468;22;19922;-64
2022/11/01 05:36:55;;;;;;;;;;;15.70;99.90;;;;;;6307981;22;19915;-64
2022/11/01 05:39:21;;;;;;;;;;;15.70;99.90;;;;;;6307653;22;19919;-63
2022/11/01 05:41:46;;;;;;;;;;;15.70;99.90;;;;;;6306649;22;19985;-64
2022/11/01 05:44:14;;;;;;;;;;;15.70;99.90;;;;;;6306278;22;19926;-63
2022/11/01 05:46:39;;;;;;;;;;;15.70;99.90;;;;;;6278685;22;19994;-64
2022/11/01 05:49:06;;;;;;;;;;;15.80;99.90;;;;;;6303997;22;19942;-64
2022/11/01 05:51:37;;;;;;;;;;;15.80;99.90;;;;;;6304993;22;19922;-63
2022/11/01 05:54:06;;;;;;;;;;;15.70;99.90;;;;;;6304992;22;19915;-63
2022/11/01 05:56:35;;;;;;;;;;;15.70;99.90;;;;;;6306589;22;19915;-63
2022/11/01 05:59:04;;;;;;;;;;;15.70;99.90;;;;;;6304915;22;19919;-64
2022/11/01 06:01:33;;;;;;;;;;;15.70;99.90;;;;;;6306568;22;19915;-64
2022/11/01 06:04:08;;;;;;;;;;;15.70;99.90;;;;;;6304605;22;19915;-64
2022/11/01 06:06:34;;;;;;;;;;;15.60;99.90;;;;;;6305959;22;19915;-64
2022/11/01 06:09:01;;;;;;;;;;;15.50;99.90;;;;;;6306682;22;19938;-64
2022/11/01 06:11:27;;;;;;;;;;;15.50;99.90;;;;;;6306679;22;19915;-64
2022/11/01 06:13:54;;;;;;;;;;;15.50;99.90;;;;;;6306288;22;19922;-64
2022/11/01 06:16:20;;;;;;;;;;;15.40;99.90;;;;;;6278996;22;19964;-63
2022/11/01 06:18:47;;;;;;;;;;;15.40;99.90;;;;;;6305903;22;20239;-64
2022/11/01 06:21:14;;;;;;;;;;;15.40;99.90;;;;;;6304067;22;19919;-63
2022/11/01 06:23:41;;;;;;;;;;;15.30;99.90;;;;;;6278642;22;19915;-64
2022/11/01 06:26:10;;;;;;;;;;;15.30;99.90;;;;;;6307394;22;20293;-63
2022/11/01 06:28:35;;;;;;;;;;;15.20;99.90;;;;;;6279586;22;19997;-64
2022/11/01 06:31:02;;;;;;;;;;;15.20;99.90;;;;;;6307389;22;19998;-63
2022/11/01 06:33:28;;;;;;;;;;;15.10;99.90;;;;;;6308036;22;19922;-63
2022/11/01 06:35:54;;;;;;;;;;;15.10;99.90;;;;;;6281074;22;20350;-63
2022/11/01 06:38:20;;;;;;;;;;;15.00;99.90;;;;;;6309966;22;19915;-63
2022/11/01 06:40:46;;;;;;;;;;;15.00;99.90;;;;;;6309790;22;20251;-63
2022/11/01 06:43:17;;;;;;;;;;;14.90;99.90;;;;;;6309986;22;20259;-64
2022/11/01 06:45:43;;;;;;;;;;;14.80;99.90;;;;;;6282284;22;19915;-63
2022/11/01 06:48:09;;;;;;;;;;;14.80;99.90;;;;;;6309520;22;20040;-63
2022/11/01 06:50:35;;;;;;;;;;;14.70;99.90;;;;;;6309989;22;19918;-64
2022/11/01 06:53:00;;;;;;;;;;;14.60;99.90;;;;;;6310037;22;19919;-63
2022/11/01 06:55:28;;;;;;;;;;;14.50;99.90;;;;;;6308076;22;19922;-63
2022/11/01 06:57:58;;;;;;;;;;;14.50;99.90;;;;;;6281537;22;19964;-63
2022/11/01 07:00:24;;;;;;;;;;;14.50;99.90;;;;;;6281567;22;19915;-63
2022/11/01 07:03:00;;;;;;;;;;;14.40;99.90;;;;;;6309636;22;19915;-63
2022/11/01 07:05:26;;;;;;;;;;;14.40;99.90;;;;;;6309089;22;19937;-63
2022/11/01 07:07:52;;;;;;;;;;;14.30;99.90;;;;;;6309195;22;20394;-63
2022/11/01 07:10:20;;;;;;;;;;;14.30;99.90;;;;;;6282226;22;19954;-63
2022/11/01 07:12:45;;;;;;;;;;;14.20;99.90;;;;;;6281933;22;19930;-63
2022/11/01 07:15:11;;;;;;;;;;;14.10;99.90;;;;;;6309357;22;19930;-63
2022/11/01 07:17:36;;;;;;;;;;;14.00;99.90;;;;;;6309431;22;19915;-64
2022/11/01 07:20:03;;;;;;;;;;;14.00;99.90;;;;;;6309100;22;20327;-63
2022/11/01 07:22:32;;;;;;;;;;;14.00;99.90;;;;;;6309518;22;19989;-63
2022/11/01 07:24:59;;;;;;;;;;;14.00;99.90;;;;;;6309503;22;19996;-63
2022/11/01 07:27:25;;;;;;;;;;;14.00;99.90;;;;;;6309289;22;19919;-63
2022/11/01 07:29:50;;;;;;;;;;;14.00;99.90;;;;;;6309586;22;20239;-63
2022/11/01 07:32:18;;;;;;;;;;;14.00;99.90;;;;;;6309437;22;20320;-63
2022/11/01 07:34:44;;;;;;;;;;;14.00;99.90;;;;;;6279809;22;19980;-63
2022/11/01 07:37:10;;;;;;;;;;;14.00;99.90;;;;;;6308835;22;19978;-63
2022/11/01 07:39:35;;;;;;;;;;;14.00;99.90;;;;;;6281923;22;19915;-63
2022/11/01 07:42:01;;;;;;;;;;;14.00;99.90;;;;;;6308939;22;19926;-63
2022/11/01 07:44:28;;;;;;;;;;;14.00;99.90;;;;;;6309319;22;19915;-63
2022/11/01 07:46:54;;;;;;;;;;;14.10;99.90;;;;;;6309213;22;19919;-63
2022/11/01 07:49:21;;;;;;;;;;;14.10;99.90;;;;;;6309630;22;19915;-63
2022/11/01 07:51:47;;;;;;;;;;;14.30;99.90;;;;;;6308832;22;19922;-64
2022/11/01 07:54:12;;;;;;;;;;;14.60;99.90;;;;;;6281415;22;19915;-60
2022/11/01 07:56:41;;;;;;;;;;;14.70;99.90;;;;;;6309243;22;19937;-63
2022/11/01 07:59:08;;;;;;;;;;;14.60;99.90;;;;;;6309119;22;19921;-63
2022/11/01 08:01:34;;;;;;;;;;;14.60;99.90;;;;;;6307106;22;19994;-65
2022/11/01 08:04:00;;;;;;;;;;;14.60;99.90;;;;;;6281151;22;19915;-64
2022/11/01 08:06:25;;;;;;;;;;;14.50;99.90;;;;;;6309057;22;19922;-66
2022/11/01 08:08:58;;;;;;;;;;;14.50;99.90;;;;;;6309034;22;20247;-66
2022/11/01 08:11:24;;;;;;;;;;;14.50;99.90;;;;;;6308725;22;19963;-66
2022/11/01 08:13:56;;;;;;;;;;;14.40;99.90;;;;;;6309008;22;19966;-66
2022/11/01 08:16:25;;;;;;;;;;;14.40;99.90;;;;;;6308978;22;19915;-66
2022/11/01 08:18:50;;;;;;;;;;;14.40;99.90;;;;;;6281004;22;19923;-66
2022/11/01 08:21:17;;;;;;;;;;;14.50;99.90;;;;;;6307561;22;20377;-66
2022/11/01 08:23:47;;;;;;;;;;;14.40;99.90;;;;;;6308854;22;19915;-66
2022/11/01 08:26:15;;;;;;;;;;;14.40;99.90;;;;;;6308857;22;19919;-66
2022/11/01 08:28:51;;;;;;;;;;;14.40;99.90;;;;;;6308731;22;19918;-66
2022/11/01 08:31:17;;;;;;;;;;;14.50;99.90;;;;;;6280691;22;19957;-66
2022/11/01 08:33:44;;;;;;;;;;;14.50;99.90;;;;;;6308789;22;20242;-66
2022/11/01 08:36:10;;;;;;;;;;;14.60;99.90;;;;;;6308799;22;20246;-63
2022/11/01 08:38:36;;;;;;;;;;;14.50;99.90;;;;;;6307030;22;19950;-63
2022/11/01 08:41:11;;;;;;;;;;;14.60;99.90;;;;;;6308975;22;19919;-63
2022/11/01 08:43:36;;;;;;;;;;;14.60;99.90;;;;;;6308701;22;19965;-63
2022/11/01 08:46:02;;;;;;;;;;;14.70;99.90;;;;;;6308542;22;19915;-63
2022/11/01 08:48:28;;;;;;;;;;;14.70;99.90;;;;;;6288930;22;19990;-83
2022/11/01 08:50:54;;;;;;;;;;;15.50;99.90;;;;;;6245189;23;19920;-83
2022/11/01 08:53:19;;;;;;;;;;;17.40;99.90;;;;;;6219517;23;20359;-83
2022/11/01 08:55:53;;;;;;;;;;;16.30;99.90;;;;;;6220368;23;19923;-81
2022/11/01 08:58:18;;;;;;;;;;;20.10;99.90;;;;;;6246610;22;20328;-82
2022/11/01 09:00:44;;;;;;;;;;;17.60;99.90;;;;;;6245200;23;19927;-82
2022/11/01 09:03:10;;;;;;;;;;;15.00;99.90;;;;;;6219919;23;19926;-82
2022/11/01 09:05:39;;;;;;;;;;;18.90;99.90;;;;;;6245172;23;19919;-82
2022/11/01 09:08:05;;;;;;;;;;;19.30;99.90;;;;;;6220406;23;19926;-82
2022/11/01 09:10:31;;;;;;;;;;;17.30;99.90;;;;;;6219967;23;19920;-83
2022/11/01 09:12:57;;;;;;;;;;;17.40;99.90;;;;;;6245151;23;19942;-82
2022/11/01 09:15:24;;;;;;;;;;;20.10;99.90;;;;;;6246201;22;20340;-83
2022/11/01 09:17:50;;;;;;;;;;;16.70;99.90;;;;;;6245131;23;19919;-83
2022/11/01 09:20:19;;;;;;;;;;;16.50;99.90;;;;;;6244370;22;19919;-82
2022/11/01 09:22:51;;;;;;;;;;;17.30;99.90;;;;;;6246821;22;19920;-83
2022/11/01 09:25:16;;;;;;;;;;;16.30;99.90;;;;;;6244700;23;19926;-83
2022/11/01 09:27:42;;;;;;;;;;;16.20;99.90;;;;;;6245411;23;19920;-83
2022/11/01 09:30:08;;;;;;;;;;;17.70;99.90;;;;;;6246397;22;19923;-83
2022/11/01 09:32:36;;;;;;;;;;;16.00;99.90;;;;;;6246681;22;20081;-82
2022/11/01 09:35:02;;;;;;;;;;;18.90;99.90;;;;;;6245225;23;19927;-82
2022/11/01 09:37:28;;;;;;;;;;;16.20;99.90;;;;;;6245448;23;20225;-82
2022/11/01 09:39:53;;;;;;;;;;;18.00;99.90;;;;;;6219385;23;19923;-82
2022/11/01 09:42:34;;;;;;;;;;;19.60;99.90;;;;;;6219992;23;19920;-82
2022/11/01 09:45:06;;;;;;;;;;;16.20;99.90;;;;;;6244632;22;19920;-82
2022/11/01 09:47:34;;;;;;;;;;;17.90;99.90;;;;;;6245225;23;20248;-82
2022/11/01 09:50:05;;;;;;;;;;;17.40;99.90;;;;;;6219776;23;19920;-82
2022/11/01 09:52:31;;;;;;;;;;;16.50;99.90;;;;;;6244898;23;20025;-82
2022/11/01 09:54:57;;;;;;;;;;;17.70;99.90;;;;;;6246556;22;19923;-82
2022/11/01 09:57:26;;;;;;;;;;;16.40;99.90;;;;;;6245120;23;19930;-82
2022/11/01 10:00:03;;;;;;;;;;;16.30;99.90;;;;;;6246670;23;19927;-82
2022/11/01 10:02:35;;;;;;;;;;;16.30;99.90;;;;;;6246369;23;19973;-83
2022/11/01 10:05:06;;;;;;;;;;;16.40;99.90;;;;;;6221693;23;20049;-82
2022/11/01 10:07:55;;;;;;;;;;;16.30;99.90;;;;;;6246887;23;19994;-83
2022/11/01 10:10:21;;;;;;;;;;;16.40;99.90;;;;;;6234301;23;19920;-82
2022/11/01 10:12:54;;;;;;;;;;;16.30;99.90;;;;;;6221709;23;19923;-82
2022/11/01 10:15:25;;;;;;;;;;;16.30;99.90;;;;;;6248658;22;20030;-82
2022/11/01 10:17:54;;;;;;;;;;;16.30;99.90;;;;;;6246879;23;19926;-82
2022/11/01 10:20:21;;;;;;;;;;;18.20;99.90;;;;;;6248238;22;19951;-83
2022/11/01 10:22:48;;;;;;;;;;;16.30;99.90;;;;;;6248584;22;19923;-83
2022/11/01 10:25:32;;;;;;;;;;;19.40;99.90;;;;;;6248743;22;19919;-82
2022/11/01 10:28:02;;;;;;;;;;;16.40;99.90;;;;;;6221648;23;19929;-83
2022/11/01 10:30:30;;;;;;;;;;;19.60;99.90;;;;;;6221001;23;20384;-82
2022/11/01 10:33:01;;;;;;;;;;;16.60;99.90;;;;;;6246951;23;19954;-82
2022/11/01 10:35:38;;;;;;;;;;;16.50;99.90;;;;;;6247404;23;19973;-82
2022/11/01 10:38:07;;;;;;;;;;;16.80;99.90;;;;;;6221420;23;20287;-82
2022/11/01 10:40:35;;;;;;;;;;;16.60;99.90;;;;;;6248083;22;19994;-82
2022/11/01 10:43:00;;;;;;;;;;;17.90;99.90;;;;;;6221178;23;19924;-81
2022/11/01 10:45:26;;;;;;;;;;;18.00;99.90;;;;;;6246088;23;19923;-82
2022/11/01 10:47:58;;;;;;;;;;;17.50;99.90;;;;;;6246441;22;19920;-82
2022/11/01 10:50:26;;;;;;;;;;;17.40;99.90;;;;;;6251351;22;19920;-81
2022/11/01 10:53:07;;;;;;;;;;;19.50;99.90;;;;;;6225862;22;19919;-81
2022/11/01 10:55:42;;;;;;;;;;;16.50;99.90;;;;;;6278217;22;19957;-81
2022/11/01 10:58:29;;;;;;;;;;;16.20;99.90;;;;;;6251683;22;19945;-81
2022/11/01 11:00:54;;;;;;;;;;;16.40;99.90;;;;;;6251434;22;20034;-82
2022/11/01 11:03:25;;;;;;;;;;;19.10;99.90;;;;;;6252406;22;19923;-81
2022/11/01 11:05:51;;;;;;;;;;;18.80;99.90;;;;;;6251886;22;19990;-82
2022/11/01 11:08:18;;;;;;;;;;;18.20;99.90;;;;;;6251400;22;19930;-82
2022/11/01 11:10:44;;;;;;;;;;;17.00;99.90;;;;;;6250969;22;19919;-80
2022/11/01 11:13:12;;;;;;;;;;;18.60;99.90;;;;;;6252066;22;19919;-82
2022/11/01 11:15:44;;;;;;;;;;;14.20;99.90;;;;;;6238694;22;19919;-83
2022/11/01 11:18:30;;;;;;;;;;;16.50;99.90;;;;;;6276599;22;19920;-82
2022/11/01 11:21:04;;;;;;;;;;;14.80;99.90;;;;;;6276192;22;19942;-82
2022/11/01 11:23:34;;;;;;;;;;;16.60;99.90;;;;;;6277308;22;19973;-82
2022/11/01 11:26:12;;;;;;;;;;;13.60;99.90;;;;;;6250062;22;20069;-82
2022/11/01 11:28:43;;;;;;;;;;;16.60;99.90;;;;;;6249724;22;19946;-82
2022/11/01 11:31:12;;;;;;;;;;;17.20;99.90;;;;;;6249806;22;20396;-82
2022/11/01 11:33:38;;;;;;;;;;;16.60;99.90;;;;;;6277376;22;19993;-82
2022/11/01 11:36:04;;;;;;;;;;;16.60;99.90;;;;;;6250017;22;20275;-81
2022/11/01 11:38:46;;;;;;;;;;;16.60;99.90;;;;;;6249588;22;19926;-81
2022/11/01 11:41:32;;;;;;;;;;;16.60;99.90;;;;;;6249533;22;19919;-81
2022/11/01 11:43:58;;;;;;;;;;;16.60;99.90;;;;;;6249365;22;19986;-83
2022/11/01 11:46:23;;;;;;;;;;;14.70;99.90;;;;;;6224449;22;19972;-81
2022/11/01 11:48:51;;;;;;;;;;;16.60;99.90;;;;;;6249670;22;19919;-81
2022/11/01 11:51:20;;;;;;;;;;;16.70;99.90;;;;;;6249526;22;19920;-82
2022/11/01 11:54:04;;;;;;;;;;;16.70;99.90;;;;;;6276807;22;19919;-82
2022/11/01 11:56:30;;;;;;;;;;;16.90;99.90;;;;;;6249652;22;20324;-81
2022/11/01 11:58:58;;;;;;;;;;;16.60;99.90;;;;;;6224036;22;19954;-82
2022/11/01 12:01:27;;;;;;;;;;;16.60;99.90;;;;;;6276806;22;19958;-82
2022/11/01 12:03:55;;;;;;;;;;;16.60;99.90;;;;;;6225075;22;19919;-82
2022/11/01 12:06:21;;;;;;;;;;;16.60;99.90;;;;;;6251157;22;19927;-82
2022/11/01 12:08:52;;;;;;;;;;;16.60;99.90;;;;;;6250949;22;19960;-81
2022/11/01 12:11:18;;;;;;;;;;;16.70;99.90;;;;;;6278069;22;19919;-81
2022/11/01 12:14:03;;;;;;;;;;;16.70;99.90;;;;;;6249667;22;20370;-82
2022/11/01 12:16:28;;;;;;;;;;;16.80;99.90;;;;;;6249972;22;19930;-80
2022/11/01 12:19:01;;;;;;;;;;;16.80;99.90;;;;;;6277583;22;20186;-82
2022/11/01 12:21:34;;;;;;;;;;;16.90;99.90;;;;;;6277626;22;19954;-81
2022/11/01 12:24:06;;;;;;;;;;;16.90;99.90;;;;;;6224159;22;19926;-81
2022/11/01 12:26:33;;;;;;;;;;;16.90;99.90;;;;;;6248838;22;19919;-82
2022/11/01 12:29:12;;;;;;;;;;;16.90;99.90;;;;;;6223978;22;19927;-80
2022/11/01 12:31:40;;;;;;;;;;;16.90;99.90;;;;;;6225088;22;19948;-81
2022/11/01 12:34:14;;;;;;;;;;;17.00;99.90;;;;;;6277416;22;20350;-81
2022/11/01 12:36:45;;;;;;;;;;;17.30;99.90;;;;;;6250617;22;19955;-81
2022/11/01 12:39:22;;;;;;;;;;;17.30;99.90;;;;;;6225042;22;19920;-81
2022/11/01 12:41:56;;;;;;;;;;;17.10;99.90;;;;;;6250677;22;19986;-81
2022/11/01 12:44:36;;;;;;;;;;;17.00;99.90;;;;;;6250531;22;19926;-81
2022/11/01 12:47:04;;;;;;;;;;;17.20;99.90;;;;;;6277387;22;20309;-80
2022/11/01 12:49:36;;;;;;;;;;;19.90;99.90;;;;;;6249963;22;19977;-81
2022/11/01 12:52:08;;;;;;;;;;;16.50;99.90;;;;;;6276874;22;19915;-81
2022/11/01 12:54:38;;;;;;;;;;;17.20;99.90;;;;;;6249923;22;19926;-81
2022/11/01 12:57:12;;;;;;;;;;;17.20;99.90;;;;;;6250407;22;19919;-81
2022/11/01 12:59:37;;;;;;;;;;;17.30;99.90;;;;;;6224604;22;19942;-82
2022/11/01 13:02:18;;;;;;;;;;;19.20;99.90;;;;;;6225239;22;19941;-81
2022/11/01 13:04:59;;;;;;;;;;;17.20;99.90;;;;;;6249547;22;20034;-81
2022/11/01 13:07:32;;;;;;;;;;;17.20;99.90;;;;;;6250277;22;19955;-81
2022/11/01 13:10:16;;;;;;;;;;;17.20;99.90;;;;;;6249642;22;19923;-80
2022/11/01 13:12:52;;;;;;;;;;;18.50;99.90;;;;;;6250798;22;20279;-81
2022/11/01 13:15:29;;;;;;;;;;;17.00;99.90;;;;;;6225097;22;19951;-81
2022/11/01 13:18:10;;;;;;;;;;;17.00;99.90;;;;;;6225547;22;19919;-82
2022/11/01 13:20:53;;;;;;;;;;;17.10;99.90;;;;;;6224972;22;20351;-81
2022/11/01 13:23:38;;;;;;;;;;;16.80;99.90;;;;;;6277413;22;19919;-80
2022/11/01 13:26:22;;;;;;;;;;;16.80;99.90;;;;;;6250362;22;19925;-82
2022/11/01 13:28:50;;;;;;;;;;;17.00;99.90;;;;;;6224592;22;19966;-81
2022/11/01 13:31:35;;;;;;;;;;;16.70;99.90;;;;;;6224450;22;20085;-81
2022/11/01 13:34:20;;;;;;;;;;;16.70;99.90;;;;;;6249461;22;19919;-81
2022/11/01 13:36:59;;;;;;;;;;;16.60;99.90;;;;;;6277363;22;19926;-81
2022/11/01 13:39:43;;;;;;;;;;;16.70;99.90;;;;;;6224883;22;19919;-81
2022/11/01 13:42:15;;;;;;;;;;;16.60;99.90;;;;;;6224948;22;19920;-81
2022/11/01 13:44:49;;;;;;;;;;;16.60;99.90;;;;;;6225146;22;20255;-81
2022/11/01 13:47:29;;;;;;;;;;;16.60;99.90;;;;;;6224824;22;19941;-81
2022/11/01 13:50:20;;;;;;;;;;;16.60;99.90;;;;;;6249906;22;19927;-81
2022/11/01 13:53:12;;;;;;;;;;;16.50;99.90;;;;;;6250479;22;19954;-81
2022/11/01 13:55:59;;;;;;;;;;;16.50;99.90;;;;;;6218646;22;19920;-81
2022/11/01 13:58:26;;;;;;;;;;;16.60;99.90;;;;;;6277511;22;19973;-82
2022/11/01 14:00:53;;;;;;;;;;;16.50;99.90;;;;;;6277236;22;19919;-81
2022/11/01 14:03:25;;;;;;;;;;;17.20;99.90;;;;;;6277056;22;19919;-81
2022/11/01 14:06:06;;;;;;;;;;;16.30;99.90;;;;;;6224206;22;19954;-81
2022/11/01 14:08:39;;;;;;;;;;;16.50;99.90;;;;;;6277477;22;19926;-81
2022/11/01 14:11:05;;;;;;;;;;;16.40;99.90;;;;;;6276713;22;19926;-81
2022/11/01 14:13:35;;;;;;;;;;;17.30;99.90;;;;;;6249652;22;19919;-83
2022/11/01 14:16:03;;;;;;;;;;;17.10;99.90;;;;;;6276709;22;20382;-81
2022/11/01 14:18:48;;;;;;;;;;;17.40;99.90;;;;;;6277094;22;19923;-81
2022/11/01 14:21:25;;;;;;;;;;;16.80;99.90;;;;;;6249921;22;20314;-81
2022/11/01 14:23:58;;;;;;;;;;;17.10;99.90;;;;;;6276782;22;20323;-81
2022/11/01 14:26:24;;;;;;;;;;;16.50;99.90;;;;;;6225050;22;19961;-81
2022/11/01 14:28:51;;;;;;;;;;;16.40;99.90;;;;;;6224758;22;19919;-80
2022/11/01 14:31:18;;;;;;;;;;;19.50;99.90;;;;;;6277090;22;20341;-81
2022/11/01 14:33:47;;;;;;;;;;;16.10;99.90;;;;;;6224772;22;20005;-81
2022/11/01 14:36:13;;;;;;;;;;;16.20;99.90;;;;;;6224017;22;19934;-81